Time;durP1;ratioP1;P1;durP2;ratioP2;P2;SDS_P1;SDS_P2;PMS_P1;PMS_P2;Temp;Humidity;BMP_temperature;BMP_pressure;BME280_temperature;BME280_humidity;BME280_pressure;Samples;Min_cycle;Max_cycle;Signal;HPM_P1;HPM_P2
2023/04/21 00:02:16;;;;;;;38.08;25.55;;;7.90;66.40;;;;;;5043168;27;115368;-82
2023/04/21 00:04:44;;;;;;;35.78;24.25;;;7.80;66.20;;;;;;5041382;27;115144;-82
2023/04/21 00:07:13;;;;;;;35.08;24.20;;;7.80;66.20;;;;;;5036511;27;114394;-81
2023/04/21 00:09:41;;;;;;;40.63;25.42;;;7.80;66.10;;;;;;5030252;27;114404;-83
2023/04/21 00:12:08;;;;;;;36.33;24.08;;;7.80;66.00;;;;;;5062139;27;115477;-84
2023/04/21 00:14:36;;;;;;;38.03;25.58;;;7.80;66.00;;;;;;5060816;27;115286;-83
2023/04/21 00:17:03;;;;;;;37.90;25.48;;;7.70;66.10;;;;;;5046847;27;115078;-83
2023/04/21 00:19:30;;;;;;;36.80;24.13;;;7.70;66.20;;;;;;5064871;27;114605;-84
2023/04/21 00:22:00;;;;;;;37.00;25.45;;;7.70;66.40;;;;;;5050782;27;115295;-84
2023/04/21 00:24:27;;;;;;;33.80;23.55;;;7.60;66.40;;;;;;5042122;27;117095;-84
2023/04/21 00:26:54;;;;;;;32.03;23.50;;;7.60;66.50;;;;;;5043923;27;114511;-83
2023/04/21 00:29:21;;;;;;;31.00;20.73;;;7.60;66.50;;;;;;5030416;27;114795;-83
2023/04/21 00:31:49;;;;;;;29.25;22.13;;;7.60;66.60;;;;;;5044799;27;114904;-84
2023/04/21 00:34:17;;;;;;;35.38;20.77;;;7.60;66.60;;;;;;5041981;27;114657;-83
2023/04/21 00:36:44;;;;;;;34.22;21.33;;;7.60;66.50;;;;;;5043317;27;114626;-84
2023/04/21 00:39:11;;;;;;;30.23;20.30;;;7.70;66.50;;;;;;5044905;27;114370;-83
2023/04/21 00:41:39;;;;;;;33.00;19.67;;;7.60;66.50;;;;;;5043825;27;115578;-82
2023/04/21 00:44:07;;;;;;;27.63;19.63;;;7.60;66.40;;;;;;5009085;27;117676;-82
2023/04/21 00:46:35;;;;;;;27.23;19.15;;;7.60;66.40;;;;;;5044050;27;114648;-83
2023/04/21 00:49:06;;;;;;;27.27;18.27;;;7.50;66.40;;;;;;5041307;27;117941;-82
2023/04/21 00:51:37;;;;;;;27.25;19.08;;;7.60;66.30;;;;;;5041281;27;117141;-83
2023/04/21 00:54:05;;;;;;;27.27;19.08;;;7.50;66.30;;;;;;5042770;27;114684;-83
2023/04/21 00:56:34;;;;;;;27.73;18.58;;;7.50;66.40;;;;;;5043443;27;117169;-82
2023/04/21 00:59:02;;;;;;;24.60;18.45;;;7.50;66.40;;;;;;5044692;27;114323;-82
2023/04/21 01:01:36;;;;;;;35.50;19.88;;;7.40;66.40;;;;;;4992729;27;115187;-82
2023/04/21 01:04:03;;;;;;;28.48;18.88;;;7.40;66.30;;;;;;5009832;27;117220;-82
2023/04/21 01:06:31;;;;;;;28.92;19.05;;;7.40;66.30;;;;;;5043318;27;114526;-82
2023/04/21 01:08:59;;;;;;;28.48;19.13;;;7.30;66.40;;;;;;5043558;27;114726;-82
2023/04/21 01:11:26;;;;;;;28.42;19.27;;;7.30;66.50;;;;;;5039347;27;116305;-82
2023/04/21 01:13:53;;;;;;;31.05;19.27;;;7.30;66.70;;;;;;5043396;27;114649;-82
2023/04/21 01:16:21;;;;;;;24.13;17.92;;;7.30;66.70;;;;;;5042058;27;114418;-82
2023/04/21 01:18:50;;;;;;;28.83;20.02;;;7.30;66.90;;;;;;5042908;27;114489;-82
2023/04/21 01:21:19;;;;;;;25.58;18.80;;;7.20;66.70;;;;;;5025706;27;116159;-82
2023/04/21 01:23:46;;;;;;;26.63;18.05;;;7.30;66.60;;;;;;5042130;27;114631;-82
2023/04/21 01:26:13;;;;;;;28.67;17.58;;;7.20;66.80;;;;;;5026118;27;116579;-81
2023/04/21 01:28:40;;;;;;;24.15;16.52;;;7.20;66.90;;;;;;5060788;27;114508;-82
2023/04/21 01:31:10;;;;;;;26.98;17.27;;;7.20;66.80;;;;;;5045459;27;115417;-81
2023/04/21 01:33:37;;;;;;;33.40;17.75;;;7.20;66.90;;;;;;5046238;27;114569;-82
2023/04/21 01:36:06;;;;;;;24.60;17.05;;;7.20;66.80;;;;;;5048961;27;116556;-82
2023/04/21 01:38:37;;;;;;;26.92;18.98;;;7.20;66.70;;;;;;5064137;27;114676;-85
2023/04/21 01:41:04;;;;;;;25.90;17.77;;;7.20;66.70;;;;;;5062693;27;117083;-82
2023/04/21 01:43:32;;;;;;;23.35;17.17;;;7.20;66.60;;;;;;5062125;27;114735;-83
2023/04/21 01:46:00;;;;;;;26.67;17.88;;;7.20;66.50;;;;;;5051748;27;116304;-83
2023/04/21 01:48:27;;;;;;;25.17;17.13;;;7.10;66.60;;;;;;5042119;27;114445;-82
2023/04/21 01:50:58;;;;;;;25.65;17.27;;;7.10;66.60;;;;;;5024199;27;115900;-83
2023/04/21 01:53:26;;;;;;;25.42;17.40;;;7.10;66.50;;;;;;5024248;27;116674;-82
2023/04/21 01:55:53;;;;;;;26.30;16.52;;;7.00;66.50;;;;;;5042757;27;114415;-82
2023/04/21 01:58:20;;;;;;;25.58;16.10;;;7.00;66.70;;;;;;5026041;27;114734;-81
2023/04/21 02:00:47;;;;;;;25.83;16.75;;;7.00;66.60;;;;;;5025436;27;114642;-81
2023/04/21 02:03:14;;;;;;;27.55;16.48;;;6.90;66.60;;;;;;5028178;27;114812;-82
2023/04/21 02:05:44;;;;;;;26.80;16.33;;;6.90;66.80;;;;;;5012692;27;114390;-81
2023/04/21 02:08:12;;;;;;;23.88;17.08;;;6.90;66.70;;;;;;5046036;27;114457;-82
2023/04/21 02:10:41;;;;;;;24.10;16.10;;;6.90;66.60;;;;;;5044729;27;115521;-82
2023/04/21 02:13:11;;;;;;;22.90;16.48;;;6.80;66.50;;;;;;5045178;27;114620;-83
2023/04/21 02:15:38;;;;;;;26.63;17.05;;;6.80;66.60;;;;;;5045845;27;114607;-83
2023/04/21 02:18:07;;;;;;;26.75;16.35;;;6.80;66.60;;;;;;5029180;27;114393;-83
2023/04/21 02:20:34;;;;;;;25.48;17.25;;;6.70;66.70;;;;;;5028369;27;115997;-82
2023/04/21 02:23:02;;;;;;;23.88;16.23;;;6.80;66.80;;;;;;5045348;27;117147;-82
2023/04/21 02:25:29;;;;;;;25.65;16.13;;;6.80;66.90;;;;;;5046900;27;114487;-82
2023/04/21 02:27:56;;;;;;;30.17;18.25;;;6.80;67.00;;;;;;5048463;27;114545;-82
2023/04/21 02:30:26;;;;;;;27.67;18.02;;;6.70;67.10;;;;;;5028102;27;114840;-82
2023/04/21 02:32:53;;;;;;;27.90;17.63;;;6.80;67.10;;;;;;5045810;27;114848;-82
2023/04/21 02:35:21;;;;;;;23.05;16.80;;;6.80;67.40;;;;;;5045886;27;114471;-82
2023/04/21 02:37:49;;;;;;;27.67;18.35;;;6.70;67.40;;;;;;5045849;27;114600;-82
2023/04/21 02:40:16;;;;;;;26.38;17.92;;;6.80;67.20;;;;;;5046007;27;115082;-82
2023/04/21 02:42:44;;;;;;;24.50;17.73;;;6.70;67.20;;;;;;5045086;27;114616;-82
2023/04/21 02:45:11;;;;;;;28.05;18.00;;;6.70;67.20;;;;;;5046580;27;114611;-83
2023/04/21 02:47:39;;;;;;;26.88;18.15;;;6.70;67.10;;;;;;5045691;27;114567;-83
2023/04/21 02:50:06;;;;;;;26.40;18.67;;;6.70;67.20;;;;;;5026862;27;117901;-82
2023/04/21 02:52:36;;;;;;;26.00;17.02;;;6.70;67.30;;;;;;5027822;27;115268;-83
2023/04/21 02:55:05;;;;;;;21.58;17.15;;;6.70;67.30;;;;;;5046271;27;117488;-82
2023/04/21 02:57:33;;;;;;;23.83;17.25;;;6.70;67.20;;;;;;5046429;27;114546;-82
2023/04/21 03:00:01;;;;;;;23.20;16.02;;;6.70;67.10;;;;;;5027407;27;115127;-83
2023/04/21 03:02:28;;;;;;;24.35;16.35;;;6.70;67.20;;;;;;5044074;27;115678;-82
2023/04/21 03:04:56;;;;;;;22.75;17.02;;;6.70;67.30;;;;;;5045119;27;117058;-82
2023/04/21 03:07:23;;;;;;;23.40;16.55;;;6.70;67.20;;;;;;5040735;27;114250;-82
2023/04/21 03:09:50;;;;;;;24.05;17.27;;;6.70;67.10;;;;;;5044153;27;114846;-82
2023/04/21 03:12:17;;;;;;;28.75;16.48;;;6.70;67.10;;;;;;5044401;27;116826;-83
2023/04/21 03:14:45;;;;;;;27.25;15.20;;;6.70;67.10;;;;;;5043824;27;114583;-81
2023/04/21 03:17:12;;;;;;;23.52;15.02;;;6.70;67.20;;;;;;5046675;27;114274;-81
2023/04/21 03:19:39;;;;;;;23.33;15.25;;;6.70;67.30;;;;;;5044410;27;114855;-82
2023/04/21 03:22:10;;;;;;;20.65;14.02;;;6.60;67.40;;;;;;5044916;27;114754;-82
2023/04/21 03:24:37;;;;;;;22.55;14.55;;;6.70;67.30;;;;;;5029121;27;114338;-81
2023/04/21 03:27:05;;;;;;;26.85;15.90;;;6.60;67.30;;;;;;5027901;27;115737;-82
2023/04/21 03:29:45;;;;;;;20.75;14.27;;;6.60;67.10;;;;;;5012241;27;118446;-82
2023/04/21 03:32:12;;;;;;;21.65;14.57;;;6.60;67.20;;;;;;5027718;27;114843;-81
2023/04/21 03:34:40;;;;;;;22.08;14.90;;;6.60;67.40;;;;;;5046221;27;114289;-82
2023/04/21 03:37:08;;;;;;;21.85;14.50;;;6.60;67.30;;;;;;5028302;27;114410;-82
2023/04/21 03:39:35;;;;;;;22.95;15.05;;;6.60;67.50;;;;;;5043759;27;114857;-81
2023/04/21 03:42:04;;;;;;;19.20;13.20;;;6.60;67.30;;;;;;5043775;27;114692;-82
2023/04/21 03:44:31;;;;;;;20.25;14.52;;;6.60;67.60;;;;;;5027060;27;114573;-83
2023/04/21 03:47:02;;;;;;;21.25;14.65;;;6.60;67.20;;;;;;5044381;27;114485;-82
2023/04/21 03:49:29;;;;;;;21.80;14.27;;;6.60;67.00;;;;;;5044157;27;115521;-82
2023/04/21 03:51:56;;;;;;;24.73;15.80;;;6.60;67.20;;;;;;5026793;27;114713;-83
2023/04/21 03:54:25;;;;;;;39.80;20.65;;;6.60;67.10;;;;;;5045669;27;114521;-83
2023/04/21 03:56:53;;;;;;;44.53;21.95;;;6.60;67.10;;;;;;5044319;27;115961;-82
2023/04/21 03:59:20;;;;;;;43.60;22.05;;;6.60;67.00;;;;;;5026556;27;115115;-82
2023/04/21 04:01:47;;;;;;;28.95;17.67;;;6.60;67.10;;;;;;5044851;27;115109;-81
2023/04/21 04:04:15;;;;;;;29.25;15.77;;;6.60;67.10;;;;;;5045178;27;114544;-82
2023/04/21 04:06:42;;;;;;;20.83;13.27;;;6.60;66.90;;;;;;5045232;27;114539;-82
2023/04/21 04:09:09;;;;;;;25.70;14.45;;;6.60;67.20;;;;;;5025920;27;118290;-81
2023/04/21 04:11:37;;;;;;;26.63;17.40;;;6.70;67.00;;;;;;5043968;27;116191;-80
2023/04/21 04:14:04;;;;;;;35.00;23.13;;;6.70;66.90;;;;;;5044131;27;114504;-81
2023/04/21 04:16:33;;;;;;;35.70;27.77;;;6.70;67.00;;;;;;5043734;27;114647;-81
2023/04/21 04:19:01;;;;;;;35.70;25.20;;;6.80;66.90;;;;;;5044056;27;114983;-81
2023/04/21 04:21:28;;;;;;;31.27;20.85;;;6.90;66.60;;;;;;5044175;27;115619;-81
2023/04/21 04:23:55;;;;;;;21.88;15.73;;;7.10;66.60;;;;;;5045155;27;114244;-81
2023/04/21 04:26:24;;;;;;;17.83;14.13;;;7.20;66.40;;;;;;5045201;27;114273;-81
2023/04/21 04:28:55;;;;;;;23.00;14.43;;;7.30;66.30;;;;;;5025974;27;118632;-81
2023/04/21 04:31:24;;;;;;;21.08;13.52;;;7.50;66.00;;;;;;5044095;27;115627;-82
2023/04/21 04:33:51;;;;;;;17.45;12.85;;;7.60;65.80;;;;;;5042484;27;114853;-81
2023/04/21 04:36:22;;;;;;;17.15;12.52;;;7.70;65.60;;;;;;5044783;27;114397;-81
2023/04/21 04:38:50;;;;;;;20.00;12.23;;;7.80;65.20;;;;;;5042718;27;114948;-81
2023/04/21 04:41:18;;;;;;;21.63;13.05;;;7.90;65.00;;;;;;5054047;27;116551;-81
2023/04/21 04:43:46;;;;;;;18.58;12.18;;;8.00;64.80;;;;;;5065146;27;114514;-81
2023/04/21 04:46:13;;;;;;;17.10;12.00;;;8.10;64.60;;;;;;5065272;27;114351;-81
2023/04/21 04:48:40;;;;;;;21.48;11.73;;;8.20;64.40;;;;;;5063740;27;115381;-80
2023/04/21 04:51:07;;;;;;;18.23;11.60;;;8.40;64.00;;;;;;5064286;27;115335;-81
2023/04/21 04:53:35;;;;;;;19.48;10.90;;;8.50;63.70;;;;;;5064075;27;114656;-80
2023/04/21 04:56:03;;;;;;;18.83;11.27;;;8.60;63.40;;;;;;5060502;27;114501;-82
2023/04/21 04:58:30;;;;;;;25.02;15.18;;;8.80;63.00;;;;;;5042554;27;115665;-81
2023/04/21 05:00:58;;;;;;;19.13;11.02;;;8.90;62.70;;;;;;5033664;27;114669;-81
2023/04/21 05:03:26;;;;;;;20.23;11.55;;;9.00;62.50;;;;;;5043313;27;114703;-81
2023/04/21 05:05:56;;;;;;;17.17;10.52;;;9.10;62.30;;;;;;5041110;27;114611;-82
2023/04/21 05:08:23;;;;;;;18.92;12.60;;;9.20;62.20;;;;;;5039044;27;116286;-81
2023/04/21 05:10:50;;;;;;;15.73;10.40;;;9.20;61.80;;;;;;5040998;27;115257;-81
2023/04/21 05:13:17;;;;;;;16.92;10.65;;;9.40;61.70;;;;;;5041772;27;114457;-81
2023/04/21 05:15:44;;;;;;;17.98;11.38;;;9.50;61.90;;;;;;5043685;27;114643;-81
2023/04/21 05:18:12;;;;;;;20.70;12.07;;;9.60;61.60;;;;;;5043036;27;115367;-81
2023/04/21 05:20:44;;;;;;;17.90;11.25;;;9.80;61.00;;;;;;5041410;27;115030;-82
2023/04/21 05:23:11;;;;;;;20.52;11.30;;;9.90;60.50;;;;;;5041487;27;114409;-82
2023/04/21 05:25:39;;;;;;;17.92;10.73;;;10.10;60.30;;;;;;5042749;27;114465;-83
2023/04/21 05:28:09;;;;;;;18.80;11.25;;;10.20;59.90;;;;;;5042704;27;116268;-82
2023/04/21 05:30:36;;;;;;;17.80;11.00;;;10.30;59.50;;;;;;5041147;27;114988;-82
2023/04/21 05:33:03;;;;;;;22.63;11.38;;;10.50;59.40;;;;;;5042405;27;116100;-83
2023/04/21 05:35:32;;;;;;;16.40;11.57;;;10.60;59.00;;;;;;5043393;27;114537;-81
2023/04/21 05:38:02;;;;;;;19.92;11.55;;;10.80;58.70;;;;;;5043855;27;115322;-82
2023/04/21 05:40:31;;;;;;;18.60;10.80;;;10.90;58.50;;;;;;5028692;27;115333;-83
2023/04/21 05:42:58;;;;;;;18.48;11.88;;;11.10;58.10;;;;;;5045193;27;114549;-82
2023/04/21 05:45:25;;;;;;;16.15;10.55;;;11.20;57.90;;;;;;5044673;27;115854;-82
2023/04/21 05:47:52;;;;;;;18.17;12.02;;;11.30;57.60;;;;;;5042966;27;116260;-82
2023/04/21 05:50:34;;;;;;;;;;;;;;;;;;;;;
2023/04/21 05:53:18;;;;;;;18.15;11.20;;;11.60;57.00;;;;;;5044466;27;114823;-83
2023/04/21 05:55:45;;;;;;;20.42;10.73;;;11.70;56.90;;;;;;5046923;27;114489;-83
2023/04/21 05:58:15;;;;;;;20.67;11.65;;;11.80;56.60;;;;;;5033015;27;118556;-81
2023/04/21 06:00:43;;;;;;;19.65;11.57;;;11.90;56.60;;;;;;5045214;27;114296;-82
2023/04/21 06:03:11;;;;;;;18.73;11.55;;;12.00;56.90;;;;;;5047133;27;114423;-84
2023/04/21 06:05:43;;;;;;;22.88;11.85;;;12.20;56.30;;;;;;5046750;27;114573;-83
2023/04/21 06:08:13;;;;;;;19.30;12.48;;;12.40;56.10;;;;;;5047710;27;115250;-82
2023/04/21 06:10:41;;;;;;;25.42;12.30;;;12.50;55.90;;;;;;5046022;27;115835;-83
2023/04/21 06:13:11;;;;;;;23.20;13.00;;;12.70;55.40;;;;;;5046420;27;114265;-84
2023/04/21 06:15:39;;;;;;;23.48;12.68;;;12.80;54.90;;;;;;5029927;27;114525;-83
2023/04/21 06:18:06;;;;;;;27.23;14.82;;;12.90;54.80;;;;;;5046475;27;114938;-83
2023/04/21 06:20:34;;;;;;;32.60;15.25;;;13.10;54.50;;;;;;5010547;27;118507;-82
2023/04/21 06:23:04;;;;;;;26.85;14.43;;;13.20;54.20;;;;;;5049801;27;114627;-82
2023/04/21 06:25:35;;;;;;;27.15;13.95;;;13.50;53.90;;;;;;5049299;27;114600;-83
2023/04/21 06:28:02;;;;;;;26.05;12.95;;;13.70;53.20;;;;;;5045709;27;114901;-83
2023/04/21 06:30:30;;;;;;;28.08;13.75;;;13.70;52.60;;;;;;5047977;27;114750;-82
2023/04/21 06:32:59;;;;;;;26.20;13.45;;;13.80;52.50;;;;;;5045153;27;118221;-82
2023/04/21 06:35:27;;;;;;;28.27;13.90;;;13.90;52.50;;;;;;5046625;27;115186;-83
2023/04/21 06:37:54;;;;;;;32.95;15.25;;;14.00;52.20;;;;;;5044050;27;115289;-83
2023/04/21 06:40:21;;;;;;;31.52;16.25;;;14.20;52.10;;;;;;5028265;27;117995;-82
2023/04/21 06:42:52;;;;;;;32.75;16.58;;;14.20;51.80;;;;;;5046078;27;114642;-83
2023/04/21 06:45:19;;;;;;;30.20;16.05;;;14.40;51.60;;;;;;5046865;27;114720;-83
2023/04/21 06:47:46;;;;;;;29.02;16.80;;;14.50;51.50;;;;;;5045271;27;114875;-83
2023/04/21 06:50:15;;;;;;;28.35;16.42;;;14.70;51.30;;;;;;5045270;27;117505;-83
2023/04/21 06:52:42;;;;;;;37.00;16.08;;;14.80;50.90;;;;;;5044647;27;114550;-84
2023/04/21 06:55:09;;;;;;;32.90;15.93;;;14.80;50.60;;;;;;5031121;27;114723;-83
2023/04/21 06:57:38;;;;;;;28.40;15.05;;;14.90;50.10;;;;;;5044206;27;114904;-82
2023/04/21 07:00:06;;;;;;;22.25;12.15;;;14.90;49.80;;;;;;5037556;27;115241;-82
2023/04/21 07:02:34;;;;;;;24.23;11.88;;;14.90;49.50;;;;;;5066538;27;115534;-82
2023/04/21 07:05:04;;;;;;;23.23;12.02;;;15.00;49.30;;;;;;5036262;27;114628;-83
2023/04/21 07:07:31;;;;;;;23.45;13.05;;;15.00;49.40;;;;;;5047336;27;115016;-82
2023/04/21 07:09:59;;;;;;;23.95;12.95;;;15.00;49.20;;;;;;5065306;27;114866;-82
2023/04/21 07:12:27;;;;;;;20.30;12.10;;;15.10;49.20;;;;;;5040261;27;114604;-82
2023/04/21 07:14:57;;;;;;;25.80;13.40;;;15.20;49.10;;;;;;5062610;27;114243;-84
2023/04/21 07:17:24;;;;;;;20.65;12.52;;;15.30;49.60;;;;;;5043929;27;117981;-83
2023/04/21 07:19:52;;;;;;;23.48;12.68;;;15.30;49.30;;;;;;5045453;27;116009;-82
2023/04/21 07:22:19;;;;;;;21.75;12.77;;;15.40;49.00;;;;;;5045531;27;114419;-82
2023/04/21 07:24:47;;;;;;;23.23;13.23;;;15.50;48.60;;;;;;5028279;27;115002;-83
2023/04/21 07:27:17;;;;;;;23.80;12.30;;;15.50;48.70;;;;;;5051260;27;116144;-83
2023/04/21 07:29:45;;;;;;;23.42;14.13;;;15.50;48.60;;;;;;5050715;27;114860;-82
2023/04/21 07:32:12;;;;;;;26.45;14.43;;;15.50;48.80;;;;;;5045547;27;116009;-83
2023/04/21 07:34:42;;;;;;;27.42;16.85;;;15.70;48.50;;;;;;5044224;27;114521;-84
2023/04/21 07:37:11;;;;;;;29.27;16.50;;;15.70;48.30;;;;;;5044660;27;115156;-85
2023/04/21 07:39:40;;;;;;;29.95;18.05;;;15.70;48.30;;;;;;5042955;27;115351;-84
2023/04/21 07:42:09;;;;;;;31.48;18.40;;;15.70;48.50;;;;;;5055213;27;117852;-84
2023/04/21 07:44:37;;;;;;;28.60;17.35;;;15.80;48.50;;;;;;5046804;27;114756;-83
2023/04/21 07:47:07;;;;;;;27.38;16.80;;;15.80;48.90;;;;;;5045966;27;114911;-83
2023/04/21 07:49:37;;;;;;;27.63;16.25;;;15.90;48.70;;;;;;5061589;27;115840;-84
2023/04/21 07:52:04;;;;;;;21.08;13.90;;;16.00;48.30;;;;;;5048711;27;114578;-83
2023/04/21 07:54:31;;;;;;;23.88;14.82;;;16.10;48.70;;;;;;5045088;27;114488;-82
2023/04/21 07:57:00;;;;;;;22.08;13.82;;;16.10;48.90;;;;;;5025960;27;115577;-82
2023/04/21 07:59:29;;;;;;;28.02;15.35;;;16.10;48.60;;;;;;5042146;27;119176;-83
2023/04/21 08:01:59;;;;;;;25.23;14.10;;;16.20;48.30;;;;;;5053540;27;114247;-84
2023/04/21 08:04:26;;;;;;;19.25;11.82;;;16.20;48.20;;;;;;5043666;27;114383;-83
2023/04/21 08:06:55;;;;;;;23.90;13.40;;;16.30;48.60;;;;;;5043893;27;115261;-84
2023/04/21 08:09:26;;;;;;;21.75;11.35;;;16.40;48.00;;;;;;5042896;27;117642;-83
2023/04/21 08:11:53;;;;;;;22.92;12.82;;;16.50;47.60;;;;;;5043297;27;114426;-83
2023/04/21 08:14:25;;;;;;;22.67;13.27;;;16.60;48.10;;;;;;5042020;27;114456;-83
2023/04/21 08:16:55;;;;;;;23.10;11.55;;;16.80;47.80;;;;;;5041972;27;114867;-84
2023/04/21 08:19:26;;;;;;;22.67;12.07;;;16.80;46.40;;;;;;5042719;27;114624;-83
2023/04/21 08:21:54;;;;;;;20.85;11.70;;;16.80;47.20;;;;;;5044843;27;115031;-83
2023/04/21 08:24:21;;;;;;;18.25;11.13;;;17.00;47.00;;;;;;5046983;27;114319;-83
2023/04/21 08:26:48;;;;;;;21.48;10.23;;;17.10;46.40;;;;;;5032282;27;117703;-83
2023/04/21 08:29:16;;;;;;;19.40;9.52;;;17.20;46.10;;;;;;5042553;27;114764;-82
2023/04/21 08:31:43;;;;;;;16.25;9.70;;;17.30;44.30;;;;;;5045939;27;114941;-83
2023/04/21 08:34:11;;;;;;;17.63;8.88;;;17.30;43.90;;;;;;5044901;27;114464;-84
2023/04/21 08:36:40;;;;;;;16.52;8.63;;;17.10;43.40;;;;;;5040791;27;116095;-83
2023/04/21 08:39:07;;;;;;;19.02;10.00;;;17.00;43.10;;;;;;5026690;27;118336;-84
2023/04/21 08:41:39;;;;;;;20.30;9.80;;;16.80;43.50;;;;;;5044725;27;115562;-83
2023/04/21 08:44:10;;;;;;;19.52;9.90;;;16.70;43.60;;;;;;5028792;27;114669;-83
2023/04/21 08:46:37;;;;;;;17.77;9.68;;;16.70;43.40;;;;;;5042667;27;115021;-83
2023/04/21 08:49:04;;;;;;;22.00;9.32;;;16.50;43.80;;;;;;5042747;27;116939;-82
2023/04/21 08:51:34;;;;;;;14.00;7.00;;;16.50;44.10;;;;;;5043286;27;114725;-83
2023/04/21 08:54:01;;;;;;;15.20;6.97;;;16.50;41.60;;;;;;5044168;27;114613;-83
2023/04/21 08:56:29;;;;;;;14.70;7.03;;;16.50;42.50;;;;;;5045113;27;116330;-83
2023/04/21 08:58:58;;;;;;;14.05;6.85;;;16.60;40.80;;;;;;5040297;27;117171;-83
2023/04/21 09:01:26;;;;;;;15.38;7.70;;;16.70;41.80;;;;;;5032307;27;114635;-83
2023/04/21 09:04:14;;;;;;;18.05;7.45;;;16.70;41.50;;;;;;5023364;27;114344;-82
2023/04/21 09:06:47;;;;;;;19.65;8.68;;;16.80;40.20;;;;;;5014900;27;117162;-85
2023/04/21 09:09:19;;;;;;;16.05;7.65;;;16.80;41.70;;;;;;5046177;27;115421;-84
2023/04/21 09:11:57;;;;;;;13.65;7.15;;;16.80;40.40;;;;;;5029581;27;114641;-84
2023/04/21 09:14:32;;;;;;;17.25;7.80;;;16.80;39.70;;;;;;5018610;27;114902;-85
2023/04/21 09:17:02;;;;;;;;;;;16.80;40.00;;;;;;5025745;27;114679;-83
2023/04/21 09:19:33;;;;;;;16.17;7.93;;;16.70;41.70;;;;;;5043148;27;114894;-83
2023/04/21 09:22:02;;;;;;;18.08;9.70;;;16.70;39.90;;;;;;5026765;27;114400;-84
2023/04/21 09:24:29;;;;;;;15.43;8.18;;;16.70;40.20;;;;;;5043945;27;114247;-83
2023/04/21 09:26:56;;;;;;;14.57;8.45;;;16.70;40.40;;;;;;5043672;27;115531;-83
2023/04/21 09:29:27;;;;;;;15.95;8.48;;;16.70;40.30;;;;;;5044879;27;115239;-83
2023/04/21 09:32:00;;;;;;;12.13;8.00;;;16.70;40.70;;;;;;4999588;27;114598;-84
2023/04/21 09:34:27;;;;;;;14.23;8.25;;;16.60;41.00;;;;;;5027002;27;114532;-82
2023/04/21 09:37:06;;;;;;;17.63;8.68;;;16.70;41.70;;;;;;5043558;27;114916;-83
2023/04/21 09:39:37;;;;;;;18.15;7.53;;;16.70;41.70;;;;;;5073295;27;114582;-83
2023/04/21 09:42:23;;;;;;;14.85;8.32;;;16.70;40.70;;;;;;5043016;27;114792;-83
2023/04/21 09:44:51;;;;;;;15.70;7.43;;;16.80;41.20;;;;;;5026339;27;115075;-83
2023/04/21 09:47:43;;;;;;;15.05;6.88;;;16.90;39.40;;;;;;5039052;27;115124;-83
2023/04/21 09:50:11;;;;;;;11.73;7.22;;;17.00;39.50;;;;;;5021046;27;114759;-83
2023/04/21 09:52:39;;;;;;;12.65;7.10;;;16.90;39.10;;;;;;5024111;27;114300;-83
2023/04/21 09:55:11;;;;;;;18.95;8.05;;;16.90;38.70;;;;;;5039610;27;114246;-81
2023/04/21 09:57:40;;;;;;;14.63;8.00;;;16.90;39.30;;;;;;5021468;27;114932;-82
2023/04/21 10:00:12;;;;;;;14.85;8.38;;;17.00;39.20;;;;;;5040089;27;114750;-83
2023/04/21 10:02:44;;;;;;;14.60;7.78;;;17.10;39.10;;;;;;5042308;27;114528;-83
2023/04/21 10:05:20;;;;;;;12.52;7.07;;;17.20;37.90;;;;;;5037467;27;114538;-83
2023/04/21 10:07:49;;;;;;;10.85;7.38;;;17.20;38.00;;;;;;5026683;27;115139;-83
2023/04/21 10:10:30;;;;;;;9.98;6.72;;;17.20;35.20;;;;;;5040972;27;114351;-83
2023/04/21 10:12:58;;;;;;;12.43;7.63;;;17.20;35.30;;;;;;5041652;27;114337;-83
2023/04/21 10:15:34;;;;;;;11.27;7.53;;;17.10;34.90;;;;;;5044023;27;114449;-83
2023/04/21 10:18:41;;;;;;;12.23;7.68;;;17.00;34.30;;;;;;5038801;27;115440;-83
2023/04/21 10:21:09;;;;;;;13.18;7.95;;;17.00;35.20;;;;;;5034419;27;116069;-82
2023/04/21 10:23:44;;;;;;;11.48;7.40;;;17.00;34.40;;;;;;5057257;27;114627;-84
2023/04/21 10:26:13;;;;;;;12.88;7.93;;;17.10;34.00;;;;;;5011496;27;114582;-83
2023/04/21 10:28:46;;;;;;;13.35;7.72;;;17.20;33.60;;;;;;5041453;27;115680;-83
2023/04/21 10:31:21;;;;;;;11.95;7.70;;;17.20;33.00;;;;;;5039646;27;116262;-82
2023/04/21 10:34:06;;;;;;;12.38;6.85;;;17.20;32.60;;;;;;5045659;27;114534;-82
2023/04/21 10:36:49;;;;;;;10.05;6.55;;;17.10;32.30;;;;;;5043168;27;114446;-83
2023/04/21 10:39:35;;;;;;;9.75;5.88;;;17.00;31.60;;;;;;5028229;27;118293;-84
2023/04/21 10:42:39;;;;;;;9.73;6.20;;;16.90;31.40;;;;;;5043130;27;115486;-84
2023/04/21 10:45:07;;;;;;;9.43;6.30;;;16.80;32.30;;;;;;5045377;27;114226;-83
2023/04/21 10:47:42;;;;;;;9.43;6.60;;;16.70;32.60;;;;;;5045631;27;114564;-83
2023/04/21 10:50:11;;;;;;;10.50;6.65;;;16.80;32.50;;;;;;5043678;27;115679;-82
2023/04/21 10:52:38;;;;;;;11.23;7.13;;;16.80;32.90;;;;;;5044430;27;115098;-84
2023/04/21 10:55:09;;;;;;;8.48;6.43;;;16.90;32.40;;;;;;5028586;27;117217;-81
2023/04/21 10:57:36;;;;;;;9.25;6.32;;;16.80;32.50;;;;;;5041230;27;114639;-82
2023/04/21 11:00:05;;;;;;;10.80;7.15;;;17.00;33.20;;;;;;5046198;27;114948;-83
2023/04/21 11:02:33;;;;;;;9.90;6.45;;;17.10;33.50;;;;;;5044282;27;116260;-83
2023/04/21 11:05:06;;;;;;;9.73;6.57;;;17.20;33.00;;;;;;5037467;27;114536;-84
2023/04/21 11:07:33;;;;;;;8.70;6.63;;;17.30;32.70;;;;;;5045387;27;114365;-83
2023/04/21 11:10:01;;;;;;;11.20;6.60;;;17.40;32.40;;;;;;5025353;27;118903;-81
2023/04/21 11:12:33;;;;;;;10.90;5.95;;;17.50;32.20;;;;;;5041485;27;114635;-83
2023/04/21 11:15:04;;;;;;;9.63;6.35;;;17.50;31.80;;;;;;5044452;27;114572;-83
2023/04/21 11:17:42;;;;;;;11.25;6.07;;;17.50;30.70;;;;;;5043801;27;114391;-82
2023/04/21 11:20:10;;;;;;;9.77;5.75;;;17.50;31.10;;;;;;5043036;27;117397;-84
2023/04/21 11:22:37;;;;;;;8.25;5.68;;;17.40;30.80;;;;;;5043875;27;115039;-83
2023/04/21 11:25:05;;;;;;;7.68;5.20;;;17.30;30.50;;;;;;5027262;27;114687;-82
2023/04/21 11:27:32;;;;;;;11.27;6.28;;;17.30;30.40;;;;;;5042273;27;114605;-82
2023/04/21 11:30:02;;;;;;;10.65;6.10;;;17.20;30.90;;;;;;5045379;27;114913;-81
2023/04/21 11:32:29;;;;;;;10.25;6.55;;;17.20;31.20;;;;;;5030098;27;116236;-82
2023/04/21 11:34:57;;;;;;;12.65;6.30;;;17.20;31.80;;;;;;5043526;27;114912;-83
2023/04/21 11:37:25;;;;;;;11.95;6.30;;;17.30;31.70;;;;;;5013340;27;114230;-83
2023/04/21 11:39:59;;;;;;;9.68;5.93;;;17.30;31.60;;;;;;5043568;27;114789;-84
2023/04/21 11:42:28;;;;;;;9.77;6.60;;;17.40;31.60;;;;;;5023354;27;118176;-84
2023/04/21 11:44:56;;;;;;;10.13;7.18;;;17.30;31.30;;;;;;5043661;27;114351;-84
2023/04/21 11:47:24;;;;;;;12.50;7.10;;;17.30;31.30;;;;;;5044310;27;114578;-85
2023/04/21 11:49:56;;;;;;;10.02;7.18;;;17.20;31.10;;;;;;5042551;27;114844;-82
2023/04/21 11:52:24;;;;;;;14.88;6.90;;;17.20;31.60;;;;;;5036236;27;115114;-84
2023/04/21 11:54:58;;;;;;;9.63;6.75;;;17.20;31.40;;;;;;5044119;27;114706;-83
2023/04/21 11:57:26;;;;;;;12.82;6.65;;;17.20;31.40;;;;;;5044006;27;114359;-84
2023/04/21 11:59:57;;;;;;;12.80;6.85;;;17.20;31.70;;;;;;5043326;27;117219;-83
2023/04/21 12:02:33;;;;;;;11.63;6.95;;;17.20;31.50;;;;;;5042693;27;115097;-83
2023/04/21 12:05:08;;;;;;;9.05;6.45;;;17.20;31.50;;;;;;5044393;27;114645;-83
2023/04/21 12:07:40;;;;;;;11.60;7.53;;;17.30;31.90;;;;;;5044901;27;114468;-84
2023/04/21 12:10:18;;;;;;;11.40;7.88;;;17.30;32.00;;;;;;5026985;27;118623;-83
2023/04/21 12:12:47;;;;;;;11.60;7.53;;;17.30;32.80;;;;;;5026745;27;115326;-83
2023/04/21 12:15:19;;;;;;;15.45;7.80;;;17.20;33.20;;;;;;5045368;27;114337;-84
2023/04/21 12:17:47;;;;;;;14.38;8.13;;;17.10;33.10;;;;;;5046375;27;114792;-85
2023/04/21 12:20:15;;;;;;;12.13;7.50;;;17.00;32.80;;;;;;4998410;27;117094;-84
2023/04/21 12:22:42;;;;;;;12.93;7.68;;;16.90;33.20;;;;;;5052841;27;114793;-84
2023/04/21 12:25:09;;;;;;;10.73;7.35;;;16.90;33.50;;;;;;5050535;27;114848;-84
2023/04/21 12:27:37;;;;;;;10.63;6.97;;;16.90;33.10;;;;;;5063886;27;114261;-85
2023/04/21 12:30:05;;;;;;;12.10;7.65;;;16.90;33.00;;;;;;5048119;27;114266;-84
2023/04/21 12:32:32;;;;;;;11.35;7.45;;;16.90;33.00;;;;;;5042144;27;114867;-84
2023/04/21 12:35:01;;;;;;;9.70;7.45;;;17.00;33.40;;;;;;5045505;27;114537;-84
2023/04/21 12:37:28;;;;;;;14.20;8.57;;;17.00;32.80;;;;;;5045089;27;114406;-84